Miracema do Tocantins, Brazil
Current Conditions -  °F | °C
As of 5:00 PM on Thursday 23 Oct 2014 (Local Time) from SBPJ Reporting Station
Light Rain Light Rain  
Wind Chill: 75°   Ceiling: 7000
Heat Index: 75°   Visibility: 6mi
Dew Point: 70°   Wind: 1mph
Humidity: 83%   Direction: 160°SSE
Pressure: 29.85"   Gusts: NA
Location:  9.55°S, 48.4°W
Report Text: SBPJ 232000Z 16001KT 9999 -RA FEW025 BKN070 24/21 Q1011 RETS
Loading
Personal Weather Stations






























Interactive Weather Map
Tropical Storm Tracking
New forecast layout! Learn more

10-Day Weather Forecast

Advertisements
Track Severe Weather on mobile